sensor_id;sensor_type;location;lat;lon;timestamp;P1;durP1;ratioP1;P2;durP2;ratioP2
67352;SDS011;54238;52.278;21.056;2022-11-15T00:01:48;25.30;;;12.80;;
67352;SDS011;54238;52.278;21.056;2022-11-15T00:04:19;23.50;;;15.70;;
67352;SDS011;54238;52.278;21.056;2022-11-15T00:06:49;23.10;;;15.60;;
67352;SDS011;54238;52.278;21.056;2022-11-15T00:09:18;27.40;;;17.30;;
67352;SDS011;54238;52.278;21.056;2022-11-15T00:11:51;23.60;;;14.90;;
67352;SDS011;54238;52.278;21.056;2022-11-15T00:14:18;25.50;;;16.00;;
67352;SDS011;54238;52.278;21.056;2022-11-15T00:16:49;24.60;;;17.20;;
67352;SDS011;54238;52.278;21.056;2022-11-15T00:19:28;19.50;;;13.00;;
67352;SDS011;54238;52.278;21.056;2022-11-15T00:21:55;25.80;;;16.40;;
67352;SDS011;54238;52.278;21.056;2022-11-15T00:24:21;20.00;;;13.00;;
67352;SDS011;54238;52.278;21.056;2022-11-15T00:27:26;24.90;;;15.20;;
67352;SDS011;54238;52.278;21.056;2022-11-15T00:29:54;29.70;;;18.70;;
67352;SDS011;54238;52.278;21.056;2022-11-15T00:32:23;27.90;;;17.10;;
67352;SDS011;54238;52.278;21.056;2022-11-15T00:35:04;31.80;;;19.90;;
67352;SDS011;54238;52.278;21.056;2022-11-15T00:37:36;32.60;;;20.00;;
67352;SDS011;54238;52.278;21.056;2022-11-15T00:40:11;31.10;;;19.10;;
67352;SDS011;54238;52.278;21.056;2022-11-15T00:42:44;30.50;;;19.50;;
67352;SDS011;54238;52.278;21.056;2022-11-15T00:45:18;30.20;;;18.50;;
67352;SDS011;54238;52.278;21.056;2022-11-15T00:47:48;32.30;;;18.90;;
67352;SDS011;54238;52.278;21.056;2022-11-15T00:53:11;40.20;;;22.30;;
67352;SDS011;54238;52.278;21.056;2022-11-15T00:55:41;35.80;;;20.10;;
67352;SDS011;54238;52.278;21.056;2022-11-15T00:58:12;32.30;;;18.70;;
67352;SDS011;54238;52.278;21.056;2022-11-15T01:00:47;29.10;;;17.40;;
67352;SDS011;54238;52.278;21.056;2022-11-15T01:03:17;36.30;;;23.10;;
67352;SDS011;54238;52.278;21.056;2022-11-15T01:08:46;36.00;;;21.10;;
67352;SDS011;54238;52.278;21.056;2022-11-15T01:11:13;40.10;;;24.20;;
67352;SDS011;54238;52.278;21.056;2022-11-15T01:13:40;40.30;;;21.20;;
67352;SDS011;54238;52.278;21.056;2022-11-15T01:16:16;42.00;;;25.20;;
67352;SDS011;54238;52.278;21.056;2022-11-15T01:18:45;44.00;;;25.60;;
67352;SDS011;54238;52.278;21.056;2022-11-15T01:21:42;39.90;;;25.80;;
67352;SDS011;54238;52.278;21.056;2022-11-15T01:24:12;42.00;;;25.20;;
67352;SDS011;54238;52.278;21.056;2022-11-15T01:29:10;35.00;;;21.00;;
67352;SDS011;54238;52.278;21.056;2022-11-15T01:31:42;40.40;;;25.80;;
67352;SDS011;54238;52.278;21.056;2022-11-15T01:34:09;41.90;;;25.50;;
67352;SDS011;54238;52.278;21.056;2022-11-15T01:36:51;45.90;;;26.60;;
67352;SDS011;54238;52.278;21.056;2022-11-15T01:39:23;48.20;;;27.80;;
67352;SDS011;54238;52.278;21.056;2022-11-15T01:42:00;48.20;;;28.70;;
67352;SDS011;54238;52.278;21.056;2022-11-15T01:44:40;41.50;;;24.40;;
67352;SDS011;54238;52.278;21.056;2022-11-15T01:47:38;57.10;;;29.80;;
67352;SDS011;54238;52.278;21.056;2022-11-15T01:50:13;48.60;;;26.20;;
67352;SDS011;54238;52.278;21.056;2022-11-15T01:52:46;45.40;;;25.40;;
67352;SDS011;54238;52.278;21.056;2022-11-15T01:55:23;47.90;;;27.20;;
67352;SDS011;54238;52.278;21.056;2022-11-15T01:58:01;49.80;;;28.10;;
67352;SDS011;54238;52.278;21.056;2022-11-15T02:00:36;53.80;;;28.70;;
67352;SDS011;54238;52.278;21.056;2022-11-15T02:03:05;57.00;;;30.60;;
67352;SDS011;54238;52.278;21.056;2022-11-15T02:05:36;47.70;;;26.50;;
67352;SDS011;54238;52.278;21.056;2022-11-15T02:08:04;56.70;;;29.70;;
67352;SDS011;54238;52.278;21.056;2022-11-15T02:10:32;57.00;;;31.40;;
67352;SDS011;54238;52.278;21.056;2022-11-15T02:13:02;51.20;;;28.00;;
67352;SDS011;54238;52.278;21.056;2022-11-15T02:15:37;50.00;;;27.50;;
67352;SDS011;54238;52.278;21.056;2022-11-15T02:18:24;51.30;;;28.10;;
67352;SDS011;54238;52.278;21.056;2022-11-15T02:21:05;51.30;;;30.10;;
67352;SDS011;54238;52.278;21.056;2022-11-15T02:29:48;50.20;;;27.60;;
67352;SDS011;54238;52.278;21.056;2022-11-15T02:32:54;34.40;;;21.00;;
67352;SDS011;54238;52.278;21.056;2022-11-15T02:35:43;45.80;;;27.00;;
67352;SDS011;54238;52.278;21.056;2022-11-15T02:41:34;48.60;;;28.70;;
67352;SDS011;54238;52.278;21.056;2022-11-15T02:44:21;54.70;;;26.40;;
67352;SDS011;54238;52.278;21.056;2022-11-15T02:47:02;42.70;;;23.60;;
67352;SDS011;54238;52.278;21.056;2022-11-15T02:52:25;47.80;;;26.50;;
67352;SDS011;54238;52.278;21.056;2022-11-15T02:54:58;47.60;;;23.40;;
67352;SDS011;54238;52.278;21.056;2022-11-15T03:00:34;52.30;;;27.40;;
67352;SDS011;54238;52.278;21.056;2022-11-15T03:06:32;43.40;;;23.90;;
67352;SDS011;54238;52.278;21.056;2022-11-15T03:12:28;44.40;;;24.50;;
67352;SDS011;54238;52.278;21.056;2022-11-15T03:15:18;42.00;;;24.10;;
67352;SDS011;54238;52.278;21.056;2022-11-15T03:17:55;39.90;;;23.20;;
67352;SDS011;54238;52.278;21.056;2022-11-15T03:20:28;48.50;;;24.40;;
67352;SDS011;54238;52.278;21.056;2022-11-15T03:23:01;37.60;;;20.40;;
67352;SDS011;54238;52.278;21.056;2022-11-15T03:25:40;41.20;;;23.20;;
67352;SDS011;54238;52.278;21.056;2022-11-15T03:28:22;50.60;;;28.20;;
67352;SDS011;54238;52.278;21.056;2022-11-15T03:30:57;45.90;;;27.30;;
67352;SDS011;54238;52.278;21.056;2022-11-15T03:33:28;47.60;;;26.90;;
67352;SDS011;54238;52.278;21.056;2022-11-15T03:35:58;44.70;;;24.30;;
67352;SDS011;54238;52.278;21.056;2022-11-15T03:38:26;48.50;;;27.90;;
67352;SDS011;54238;52.278;21.056;2022-11-15T03:41:04;53.00;;;29.80;;
67352;SDS011;54238;52.278;21.056;2022-11-15T03:49:38;48.40;;;26.90;;
67352;SDS011;54238;52.278;21.056;2022-11-15T03:52:19;48.60;;;26.70;;
67352;SDS011;54238;52.278;21.056;2022-11-15T03:54:53;50.00;;;27.40;;
67352;SDS011;54238;52.278;21.056;2022-11-15T03:57:25;56.20;;;31.90;;
67352;SDS011;54238;52.278;21.056;2022-11-15T03:59:53;43.80;;;25.10;;
67352;SDS011;54238;52.278;21.056;2022-11-15T04:02:20;56.10;;;27.90;;
67352;SDS011;54238;52.278;21.056;2022-11-15T04:04:49;40.80;;;22.90;;
67352;SDS011;54238;52.278;21.056;2022-11-15T04:07:19;53.40;;;29.30;;
67352;SDS011;54238;52.278;21.056;2022-11-15T04:09:46;50.00;;;27.40;;
67352;SDS011;54238;52.278;21.056;2022-11-15T04:15:04;54.90;;;30.90;;
67352;SDS011;54238;52.278;21.056;2022-11-15T04:17:49;52.10;;;27.60;;
67352;SDS011;54238;52.278;21.056;2022-11-15T04:20:26;47.50;;;27.70;;
67352;SDS011;54238;52.278;21.056;2022-11-15T04:23:21;51.30;;;27.20;;
67352;SDS011;54238;52.278;21.056;2022-11-15T04:26:21;53.80;;;31.40;;
67352;SDS011;54238;52.278;21.056;2022-11-15T04:28:49;54.50;;;28.80;;
67352;SDS011;54238;52.278;21.056;2022-11-15T04:31:37;48.90;;;27.00;;
67352;SDS011;54238;52.278;21.056;2022-11-15T04:34:15;59.50;;;31.60;;
67352;SDS011;54238;52.278;21.056;2022-11-15T04:36:44;61.30;;;33.70;;
67352;SDS011;54238;52.278;21.056;2022-11-15T04:39:49;54.60;;;28.80;;
67352;SDS011;54238;52.278;21.056;2022-11-15T04:42:20;61.30;;;32.60;;
67352;SDS011;54238;52.278;21.056;2022-11-15T04:44:49;51.00;;;27.10;;
67352;SDS011;54238;52.278;21.056;2022-11-15T04:47:23;58.40;;;32.20;;
67352;SDS011;54238;52.278;21.056;2022-11-15T04:49:56;67.30;;;34.20;;
67352;SDS011;54238;52.278;21.056;2022-11-15T04:55:17;59.50;;;33.30;;
67352;SDS011;54238;52.278;21.056;2022-11-15T04:57:47;64.70;;;30.70;;
67352;SDS011;54238;52.278;21.056;2022-11-15T05:00:16;58.90;;;31.90;;
67352;SDS011;54238;52.278;21.056;2022-11-15T05:02:48;45.90;;;25.70;;
67352;SDS011;54238;52.278;21.056;2022-11-15T05:05:38;43.00;;;20.80;;
67352;SDS011;54238;52.278;21.056;2022-11-15T05:08:07;49.60;;;26.30;;
67352;SDS011;54238;52.278;21.056;2022-11-15T05:10:36;54.40;;;27.80;;
67352;SDS011;54238;52.278;21.056;2022-11-15T05:13:05;45.10;;;23.40;;
67352;SDS011;54238;52.278;21.056;2022-11-15T05:15:37;56.30;;;28.40;;
67352;SDS011;54238;52.278;21.056;2022-11-15T05:18:14;56.10;;;30.20;;
67352;SDS011;54238;52.278;21.056;2022-11-15T05:20:41;55.90;;;29.40;;
67352;SDS011;54238;52.278;21.056;2022-11-15T05:23:08;55.50;;;28.20;;
67352;SDS011;54238;52.278;21.056;2022-11-15T05:25:45;64.70;;;31.60;;
67352;SDS011;54238;52.278;21.056;2022-11-15T05:28:12;55.00;;;29.70;;
67352;SDS011;54238;52.278;21.056;2022-11-15T05:30:42;62.10;;;31.20;;
67352;SDS011;54238;52.278;21.056;2022-11-15T05:33:14;58.30;;;27.40;;
67352;SDS011;54238;52.278;21.056;2022-11-15T05:35:47;45.60;;;21.90;;
67352;SDS011;54238;52.278;21.056;2022-11-15T05:38:19;60.30;;;30.00;;
67352;SDS011;54238;52.278;21.056;2022-11-15T05:40:51;63.40;;;31.30;;
67352;SDS011;54238;52.278;21.056;2022-11-15T05:43:18;59.90;;;30.50;;
67352;SDS011;54238;52.278;21.056;2022-11-15T05:45:50;55.20;;;28.40;;
67352;SDS011;54238;52.278;21.056;2022-11-15T05:48:17;53.90;;;28.30;;
67352;SDS011;54238;52.278;21.056;2022-11-15T05:50:49;46.40;;;23.80;;
67352;SDS011;54238;52.278;21.056;2022-11-15T05:53:19;66.10;;;29.70;;
67352;SDS011;54238;52.278;21.056;2022-11-15T05:55:50;65.80;;;30.80;;
67352;SDS011;54238;52.278;21.056;2022-11-15T05:58:20;54.20;;;29.80;;
67352;SDS011;54238;52.278;21.056;2022-11-15T06:00:49;53.80;;;27.40;;
67352;SDS011;54238;52.278;21.056;2022-11-15T06:03:16;53.50;;;28.90;;
67352;SDS011;54238;52.278;21.056;2022-11-15T06:05:43;51.20;;;27.80;;
67352;SDS011;54238;52.278;21.056;2022-11-15T06:08:13;54.60;;;27.90;;
67352;SDS011;54238;52.278;21.056;2022-11-15T06:10:42;55.20;;;27.30;;
67352;SDS011;54238;52.278;21.056;2022-11-15T06:13:11;51.80;;;26.90;;
67352;SDS011;54238;52.278;21.056;2022-11-15T06:15:43;61.60;;;30.40;;
67352;SDS011;54238;52.278;21.056;2022-11-15T06:18:10;67.80;;;30.70;;
67352;SDS011;54238;52.278;21.056;2022-11-15T06:20:39;61.20;;;30.60;;
67352;SDS011;54238;52.278;21.056;2022-11-15T06:23:06;63.90;;;32.90;;
67352;SDS011;54238;52.278;21.056;2022-11-15T06:25:35;49.20;;;24.40;;
67352;SDS011;54238;52.278;21.056;2022-11-15T06:28:02;62.30;;;29.30;;
67352;SDS011;54238;52.278;21.056;2022-11-15T06:30:29;70.80;;;32.00;;
67352;SDS011;54238;52.278;21.056;2022-11-15T06:33:02;64.70;;;31.10;;
67352;SDS011;54238;52.278;21.056;2022-11-15T06:35:33;58.20;;;28.70;;
67352;SDS011;54238;52.278;21.056;2022-11-15T06:38:11;68.90;;;31.90;;
67352;SDS011;54238;52.278;21.056;2022-11-15T06:40:38;65.90;;;33.10;;
67352;SDS011;54238;52.278;21.056;2022-11-15T06:43:08;51.10;;;25.50;;
67352;SDS011;54238;52.278;21.056;2022-11-15T06:45:40;65.20;;;30.40;;
67352;SDS011;54238;52.278;21.056;2022-11-15T06:48:09;61.70;;;29.90;;
67352;SDS011;54238;52.278;21.056;2022-11-15T06:50:40;50.80;;;24.60;;
67352;SDS011;54238;52.278;21.056;2022-11-15T06:53:08;46.00;;;22.40;;
67352;SDS011;54238;52.278;21.056;2022-11-15T06:55:35;61.40;;;30.40;;
67352;SDS011;54238;52.278;21.056;2022-11-15T06:58:07;55.70;;;23.90;;
67352;SDS011;54238;52.278;21.056;2022-11-15T07:00:33;64.20;;;24.70;;
67352;SDS011;54238;52.278;21.056;2022-11-15T07:03:03;65.30;;;30.50;;
67352;SDS011;54238;52.278;21.056;2022-11-15T07:05:33;58.80;;;27.90;;
67352;SDS011;54238;52.278;21.056;2022-11-15T07:08:06;58.50;;;28.70;;
67352;SDS011;54238;52.278;21.056;2022-11-15T07:10:36;69.30;;;30.90;;
67352;SDS011;54238;52.278;21.056;2022-11-15T07:13:02;75.30;;;34.00;;
67352;SDS011;54238;52.278;21.056;2022-11-15T07:15:30;60.30;;;29.10;;
67352;SDS011;54238;52.278;21.056;2022-11-15T07:18:00;69.10;;;32.50;;
67352;SDS011;54238;52.278;21.056;2022-11-15T07:20:33;69.90;;;33.00;;
67352;SDS011;54238;52.278;21.056;2022-11-15T07:23:03;51.00;;;21.90;;
67352;SDS011;54238;52.278;21.056;2022-11-15T07:25:36;64.20;;;28.30;;
67352;SDS011;54238;52.278;21.056;2022-11-15T07:28:04;64.00;;;30.30;;
67352;SDS011;54238;52.278;21.056;2022-11-15T07:30:31;60.30;;;29.70;;
67352;SDS011;54238;52.278;21.056;2022-11-15T07:33:01;59.60;;;25.80;;
67352;SDS011;54238;52.278;21.056;2022-11-15T07:35:29;50.20;;;22.70;;
67352;SDS011;54238;52.278;21.056;2022-11-15T07:38:01;55.60;;;26.00;;
67352;SDS011;54238;52.278;21.056;2022-11-15T07:40:31;56.60;;;24.50;;
67352;SDS011;54238;52.278;21.056;2022-11-15T07:43:03;44.40;;;23.50;;
67352;SDS011;54238;52.278;21.056;2022-11-15T07:45:32;57.40;;;28.20;;
67352;SDS011;54238;52.278;21.056;2022-11-15T07:48:03;44.30;;;23.80;;
67352;SDS011;54238;52.278;21.056;2022-11-15T07:50:37;44.20;;;21.50;;
67352;SDS011;54238;52.278;21.056;2022-11-15T07:53:12;39.70;;;20.20;;
67352;SDS011;54238;52.278;21.056;2022-11-15T07:55:41;31.80;;;15.50;;
67352;SDS011;54238;52.278;21.056;2022-11-15T07:58:10;43.70;;;21.50;;
67352;SDS011;54238;52.278;21.056;2022-11-15T08:00:39;42.50;;;17.50;;
67352;SDS011;54238;52.278;21.056;2022-11-15T08:03:09;32.50;;;17.40;;
67352;SDS011;54238;52.278;21.056;2022-11-15T08:05:42;43.80;;;22.70;;
67352;SDS011;54238;52.278;21.056;2022-11-15T08:08:14;49.30;;;25.10;;
67352;SDS011;54238;52.278;21.056;2022-11-15T08:10:44;41.90;;;20.50;;
67352;SDS011;54238;52.278;21.056;2022-11-15T08:13:12;46.80;;;23.00;;
67352;SDS011;54238;52.278;21.056;2022-11-15T08:15:42;40.60;;;20.40;;
67352;SDS011;54238;52.278;21.056;2022-11-15T08:18:13;43.10;;;19.90;;
67352;SDS011;54238;52.278;21.056;2022-11-15T08:20:44;34.20;;;18.80;;
67352;SDS011;54238;52.278;21.056;2022-11-15T08:23:11;45.20;;;25.40;;
67352;SDS011;54238;52.278;21.056;2022-11-15T08:25:39;47.40;;;23.80;;
67352;SDS011;54238;52.278;21.056;2022-11-15T08:28:08;42.60;;;22.50;;
67352;SDS011;54238;52.278;21.056;2022-11-15T08:30:38;47.00;;;24.50;;
67352;SDS011;54238;52.278;21.056;2022-11-15T08:33:13;50.60;;;25.00;;
67352;SDS011;54238;52.278;21.056;2022-11-15T08:35:43;52.80;;;25.20;;
67352;SDS011;54238;52.278;21.056;2022-11-15T08:38:10;51.60;;;23.40;;
67352;SDS011;54238;52.278;21.056;2022-11-15T08:40:37;43.80;;;22.60;;
67352;SDS011;54238;52.278;21.056;2022-11-15T08:43:04;56.40;;;26.30;;
67352;SDS011;54238;52.278;21.056;2022-11-15T08:45:34;45.80;;;23.50;;
67352;SDS011;54238;52.278;21.056;2022-11-15T08:48:02;49.90;;;24.50;;
67352;SDS011;54238;52.278;21.056;2022-11-15T08:50:32;41.80;;;23.50;;
67352;SDS011;54238;52.278;21.056;2022-11-15T08:53:07;48.60;;;24.20;;
67352;SDS011;54238;52.278;21.056;2022-11-15T08:55:40;46.90;;;24.30;;
67352;SDS011;54238;52.278;21.056;2022-11-15T08:58:07;47.80;;;25.00;;
67352;SDS011;54238;52.278;21.056;2022-11-15T09:00:36;39.60;;;22.20;;
67352;SDS011;54238;52.278;21.056;2022-11-15T09:03:05;41.50;;;21.30;;
67352;SDS011;54238;52.278;21.056;2022-11-15T09:05:35;40.80;;;22.90;;
67352;SDS011;54238;52.278;21.056;2022-11-15T09:08:05;46.00;;;24.70;;
67352;SDS011;54238;52.278;21.056;2022-11-15T09:10:34;45.50;;;25.70;;
67352;SDS011;54238;52.278;21.056;2022-11-15T09:13:03;49.60;;;25.60;;
67352;SDS011;54238;52.278;21.056;2022-11-15T09:15:30;42.70;;;23.80;;
67352;SDS011;54238;52.278;21.056;2022-11-15T09:18:00;48.50;;;24.20;;
67352;SDS011;54238;52.278;21.056;2022-11-15T09:20:27;45.00;;;23.60;;
67352;SDS011;54238;52.278;21.056;2022-11-15T09:22:54;44.60;;;20.60;;
67352;SDS011;54238;52.278;21.056;2022-11-15T09:25:21;41.80;;;23.00;;
67352;SDS011;54238;52.278;21.056;2022-11-15T09:27:49;44.40;;;24.10;;
67352;SDS011;54238;52.278;21.056;2022-11-15T09:30:19;43.90;;;25.10;;
67352;SDS011;54238;52.278;21.056;2022-11-15T09:32:49;45.40;;;25.70;;
67352;SDS011;54238;52.278;21.056;2022-11-15T09:35:19;51.70;;;26.90;;
67352;SDS011;54238;52.278;21.056;2022-11-15T09:37:48;43.10;;;21.80;;
67352;SDS011;54238;52.278;21.056;2022-11-15T09:40:24;50.00;;;23.70;;
67352;SDS011;54238;52.278;21.056;2022-11-15T09:46:15;43.90;;;21.40;;
67352;SDS011;54238;52.278;21.056;2022-11-15T09:51:32;46.40;;;24.00;;
67352;SDS011;54238;52.278;21.056;2022-11-15T09:56:50;39.20;;;21.60;;
67352;SDS011;54238;52.278;21.056;2022-11-15T10:05:38;31.20;;;17.00;;
67352;SDS011;54238;52.278;21.056;2022-11-15T10:11:10;43.80;;;24.00;;
67352;SDS011;54238;52.278;21.056;2022-11-15T10:13:41;47.50;;;25.60;;
67352;SDS011;54238;52.278;21.056;2022-11-15T10:16:30;48.60;;;25.00;;
67352;SDS011;54238;52.278;21.056;2022-11-15T10:20:24;36.50;;;20.80;;
67352;SDS011;54238;52.278;21.056;2022-11-15T10:22:40;42.80;;;24.20;;
67352;SDS011;54238;52.278;21.056;2022-11-15T10:30:31;41.10;;;22.60;;
67352;SDS011;54238;52.278;21.056;2022-11-15T10:33:17;47.40;;;23.50;;
67352;SDS011;54238;52.278;21.056;2022-11-15T10:41:17;49.90;;;26.00;;
67352;SDS011;54238;52.278;21.056;2022-11-15T10:44:10;45.20;;;25.10;;
67352;SDS011;54238;52.278;21.056;2022-11-15T10:49:31;41.90;;;23.50;;
67352;SDS011;54238;52.278;21.056;2022-11-15T10:54:43;33.60;;;18.70;;
67352;SDS011;54238;52.278;21.056;2022-11-15T11:06:12;50.00;;;26.60;;
67352;SDS011;54238;52.278;21.056;2022-11-15T11:09:03;35.80;;;21.40;;
67352;SDS011;54238;52.278;21.056;2022-11-15T11:11:46;49.40;;;28.40;;
67352;SDS011;54238;52.278;21.056;2022-11-15T11:14:25;42.80;;;24.90;;
67352;SDS011;54238;52.278;21.056;2022-11-15T11:17:15;47.20;;;25.00;;
67352;SDS011;54238;52.278;21.056;2022-11-15T11:19:49;44.80;;;25.00;;
67352;SDS011;54238;52.278;21.056;2022-11-15T11:31:44;46.00;;;23.70;;
67352;SDS011;54238;52.278;21.056;2022-11-15T11:38:01;43.60;;;24.50;;
67352;SDS011;54238;52.278;21.056;2022-11-15T11:40:44;45.60;;;26.10;;
67352;SDS011;54238;52.278;21.056;2022-11-15T11:49:38;42.90;;;23.50;;
67352;SDS011;54238;52.278;21.056;2022-11-15T11:52:27;43.80;;;21.30;;
67352;SDS011;54238;52.278;21.056;2022-11-15T11:55:04;48.20;;;27.50;;
67352;SDS011;54238;52.278;21.056;2022-11-15T12:00:45;48.90;;;26.80;;
67352;SDS011;54238;52.278;21.056;2022-11-15T12:03:33;51.60;;;27.90;;
67352;SDS011;54238;52.278;21.056;2022-11-15T12:06:20;43.00;;;25.50;;
67352;SDS011;54238;52.278;21.056;2022-11-15T12:08:56;47.90;;;24.30;;
67352;SDS011;54238;52.278;21.056;2022-11-15T12:11:39;37.80;;;22.30;;
67352;SDS011;54238;52.278;21.056;2022-11-15T12:14:38;50.30;;;26.60;;
67352;SDS011;54238;52.278;21.056;2022-11-15T12:17:11;52.10;;;27.30;;
67352;SDS011;54238;52.278;21.056;2022-11-15T12:19:41;42.80;;;23.30;;
67352;SDS011;54238;52.278;21.056;2022-11-15T12:22:17;60.20;;;31.50;;
67352;SDS011;54238;52.278;21.056;2022-11-15T12:25:07;63.00;;;32.30;;
67352;SDS011;54238;52.278;21.056;2022-11-15T12:28:11;55.30;;;29.90;;
67352;SDS011;54238;52.278;21.056;2022-11-15T12:30:51;49.80;;;25.60;;
67352;SDS011;54238;52.278;21.056;2022-11-15T12:36:11;61.70;;;31.80;;
67352;SDS011;54238;52.278;21.056;2022-11-15T12:47:23;58.10;;;30.40;;
67352;SDS011;54238;52.278;21.056;2022-11-15T12:49:56;58.90;;;31.40;;
67352;SDS011;54238;52.278;21.056;2022-11-15T12:52:25;66.50;;;32.60;;
67352;SDS011;54238;52.278;21.056;2022-11-15T12:55:00;67.80;;;32.10;;
67352;SDS011;54238;52.278;21.056;2022-11-15T12:57:34;60.90;;;31.00;;
67352;SDS011;54238;52.278;21.056;2022-11-15T13:00:36;64.10;;;34.50;;
67352;SDS011;54238;52.278;21.056;2022-11-15T13:03:26;55.90;;;31.40;;
67352;SDS011;54238;52.278;21.056;2022-11-15T13:05:59;62.00;;;32.10;;
67352;SDS011;54238;52.278;21.056;2022-11-15T13:08:43;58.90;;;33.40;;
67352;SDS011;54238;52.278;21.056;2022-11-15T13:11:41;62.90;;;33.70;;
67352;SDS011;54238;52.278;21.056;2022-11-15T13:14:42;61.80;;;33.20;;
67352;SDS011;54238;52.278;21.056;2022-11-15T13:22:49;69.00;;;33.90;;
67352;SDS011;54238;52.278;21.056;2022-11-15T13:28:31;58.70;;;32.50;;
67352;SDS011;54238;52.278;21.056;2022-11-15T13:31:21;71.00;;;35.50;;
67352;SDS011;54238;52.278;21.056;2022-11-15T13:33:52;63.00;;;34.00;;
67352;SDS011;54238;52.278;21.056;2022-11-15T13:36:32;64.70;;;33.70;;
67352;SDS011;54238;52.278;21.056;2022-11-15T13:41:50;71.90;;;34.90;;
67352;SDS011;54238;52.278;21.056;2022-11-15T13:44:24;66.50;;;34.30;;
67352;SDS011;54238;52.278;21.056;2022-11-15T13:47:16;70.80;;;36.50;;
67352;SDS011;54238;52.278;21.056;2022-11-15T13:49:46;69.80;;;34.90;;
67352;SDS011;54238;52.278;21.056;2022-11-15T13:52:14;67.50;;;35.60;;
67352;SDS011;54238;52.278;21.056;2022-11-15T13:55:03;71.20;;;35.60;;
67352;SDS011;54238;52.278;21.056;2022-11-15T13:57:44;61.40;;;32.00;;
67352;SDS011;54238;52.278;21.056;2022-11-15T14:00:46;56.70;;;30.20;;
67352;SDS011;54238;52.278;21.056;2022-11-15T14:03:26;61.00;;;32.40;;
67352;SDS011;54238;52.278;21.056;2022-11-15T14:06:16;65.10;;;34.40;;
67352;SDS011;54238;52.278;21.056;2022-11-15T14:09:00;68.90;;;36.20;;
67352;SDS011;54238;52.278;21.056;2022-11-15T14:11:34;73.20;;;37.10;;
67352;SDS011;54238;52.278;21.056;2022-11-15T14:16:45;64.90;;;32.30;;
67352;SDS011;54238;52.278;21.056;2022-11-15T14:19:34;67.30;;;34.80;;
67352;SDS011;54238;52.278;21.056;2022-11-15T14:24:45;73.00;;;35.00;;
67352;SDS011;54238;52.278;21.056;2022-11-15T14:27:36;71.00;;;32.70;;
67352;SDS011;54238;52.278;21.056;2022-11-15T14:30:05;61.70;;;32.00;;
67352;SDS011;54238;52.278;21.056;2022-11-15T14:32:49;65.60;;;34.30;;
67352;SDS011;54238;52.278;21.056;2022-11-15T14:35:22;62.50;;;33.00;;
67352;SDS011;54238;52.278;21.056;2022-11-15T14:37:53;65.80;;;32.50;;
67352;SDS011;54238;52.278;21.056;2022-11-15T14:40:25;56.60;;;33.90;;
67352;SDS011;54238;52.278;21.056;2022-11-15T14:42:53;56.60;;;31.70;;
67352;SDS011;54238;52.278;21.056;2022-11-15T14:45:21;75.50;;;40.60;;
67352;SDS011;54238;52.278;21.056;2022-11-15T14:47:54;65.40;;;32.30;;
67352;SDS011;54238;52.278;21.056;2022-11-15T14:50:21;56.60;;;28.90;;
67352;SDS011;54238;52.278;21.056;2022-11-15T14:52:48;60.40;;;32.70;;
67352;SDS011;54238;52.278;21.056;2022-11-15T14:57:52;60.40;;;29.50;;
67352;SDS011;54238;52.278;21.056;2022-11-15T15:00:22;56.70;;;30.30;;
67352;SDS011;54238;52.278;21.056;2022-11-15T15:02:52;62.50;;;31.70;;
67352;SDS011;54238;52.278;21.056;2022-11-15T15:08:11;53.10;;;28.70;;
67352;SDS011;54238;52.278;21.056;2022-11-15T15:10:43;63.40;;;34.00;;
67352;SDS011;54238;52.278;21.056;2022-11-15T15:15:55;57.40;;;30.80;;
67352;SDS011;54238;52.278;21.056;2022-11-15T15:18:22;64.40;;;32.00;;
67352;SDS011;54238;52.278;21.056;2022-11-15T15:20:58;57.50;;;32.30;;
67352;SDS011;54238;52.278;21.056;2022-11-15T15:23:36;57.60;;;29.50;;
67352;SDS011;54238;52.278;21.056;2022-11-15T15:26:07;66.50;;;32.60;;
67352;SDS011;54238;52.278;21.056;2022-11-15T15:28:34;52.20;;;30.70;;
67352;SDS011;54238;52.278;21.056;2022-11-15T15:31:01;58.70;;;31.50;;
67352;SDS011;54238;52.278;21.056;2022-11-15T15:33:28;62.90;;;32.50;;
67352;SDS011;54238;52.278;21.056;2022-11-15T15:35:56;60.30;;;32.80;;
67352;SDS011;54238;52.278;21.056;2022-11-15T15:38:25;64.80;;;34.30;;
67352;SDS011;54238;52.278;21.056;2022-11-15T15:40:54;59.40;;;33.60;;
67352;SDS011;54238;52.278;21.056;2022-11-15T15:43:24;67.20;;;33.60;;
67352;SDS011;54238;52.278;21.056;2022-11-15T15:45:54;66.50;;;33.20;;
67352;SDS011;54238;52.278;21.056;2022-11-15T15:48:25;66.20;;;32.70;;
67352;SDS011;54238;52.278;21.056;2022-11-15T15:50:52;60.00;;;31.30;;
67352;SDS011;54238;52.278;21.056;2022-11-15T15:53:24;58.60;;;29.50;;
67352;SDS011;54238;52.278;21.056;2022-11-15T15:55:51;47.50;;;25.20;;
67352;SDS011;54238;52.278;21.056;2022-11-15T15:58:18;64.10;;;31.00;;
67352;SDS011;54238;52.278;21.056;2022-11-15T16:00:47;71.80;;;32.50;;
67352;SDS011;54238;52.278;21.056;2022-11-15T16:03:16;97.70;;;41.30;;
67352;SDS011;54238;52.278;21.056;2022-11-15T16:05:48;85.60;;;38.50;;
67352;SDS011;54238;52.278;21.056;2022-11-15T16:08:24;66.40;;;34.30;;
67352;SDS011;54238;52.278;21.056;2022-11-15T16:10:56;63.70;;;31.90;;
67352;SDS011;54238;52.278;21.056;2022-11-15T16:13:30;64.20;;;31.20;;
67352;SDS011;54238;52.278;21.056;2022-11-15T16:15:57;56.80;;;25.70;;
67352;SDS011;54238;52.278;21.056;2022-11-15T16:18:29;60.20;;;31.20;;
67352;SDS011;54238;52.278;21.056;2022-11-15T16:20:58;58.10;;;29.70;;
67352;SDS011;54238;52.278;21.056;2022-11-15T16:23:27;66.50;;;31.60;;
67352;SDS011;54238;52.278;21.056;2022-11-15T16:25:55;63.80;;;30.40;;
67352;SDS011;54238;52.278;21.056;2022-11-15T16:28:25;69.30;;;33.90;;
67352;SDS011;54238;52.278;21.056;2022-11-15T16:31:07;76.70;;;34.00;;
67352;SDS011;54238;52.278;21.056;2022-11-15T16:33:39;65.40;;;32.10;;
67352;SDS011;54238;52.278;21.056;2022-11-15T16:38:52;63.90;;;30.30;;
67352;SDS011;54238;52.278;21.056;2022-11-15T16:41:25;74.70;;;34.10;;
67352;SDS011;54238;52.278;21.056;2022-11-15T16:43:53;77.50;;;34.50;;
67352;SDS011;54238;52.278;21.056;2022-11-15T16:46:26;67.80;;;32.40;;
67352;SDS011;54238;52.278;21.056;2022-11-15T16:49:01;75.00;;;35.00;;
67352;SDS011;54238;52.278;21.056;2022-11-15T16:51:33;68.00;;;31.90;;
67352;SDS011;54238;52.278;21.056;2022-11-15T16:54:04;62.80;;;27.70;;
67352;SDS011;54238;52.278;21.056;2022-11-15T16:56:33;76.50;;;33.80;;
67352;SDS011;54238;52.278;21.056;2022-11-15T16:59:03;70.60;;;33.40;;
67352;SDS011;54238;52.278;21.056;2022-11-15T17:01:37;54.60;;;26.00;;
67352;SDS011;54238;52.278;21.056;2022-11-15T17:04:12;74.40;;;31.60;;
67352;SDS011;54238;52.278;21.056;2022-11-15T17:06:46;67.10;;;32.80;;
67352;SDS011;54238;52.278;21.056;2022-11-15T17:09:21;69.30;;;32.40;;
67352;SDS011;54238;52.278;21.056;2022-11-15T17:11:55;68.10;;;31.00;;
67352;SDS011;54238;52.278;21.056;2022-11-15T17:14:22;60.80;;;29.60;;